Time;durP1;ratioP1;P1;durP2;ratioP2;P2;SDS_P1;SDS_P2;PMS_P1;PMS_P2;Temp;Humidity;BMP_temperature;BMP_pressure;BME280_temperature;BME280_humidity;BME280_pressure;Samples;Min_cycle;Max_cycle;Signal;HPM_P1;HPM_P2
2023/03/03 00:01:36;;;;;;;1999.90;999.90;;;4.60;99.90;;;;;;4993033;28;20056;-87
2023/03/03 00:04:02;;;;;;;1999.90;999.90;;;3.60;99.90;;;;;;4993239;28;20138;-88
2023/03/03 00:06:29;;;;;;;1999.90;999.90;;;4.00;84.00;;;;;;4992660;28;20125;-88
2023/03/03 00:08:55;;;;;;;1999.90;999.90;;;4.30;87.90;;;;;;4992462;28;20482;-87
2023/03/03 00:11:20;;;;;;;1999.90;999.90;;;4.30;91.30;;;;;;4994179;28;20078;-87
2023/03/03 00:13:49;;;;;;;1999.90;999.90;;;4.10;99.90;;;;;;4991378;28;20368;-88
2023/03/03 00:16:26;;;;;;;1999.90;999.90;;;4.80;90.90;;;;;;4993800;28;20042;-87
2023/03/03 00:18:53;;;;;;;1992.13;850.90;;;5.20;90.50;;;;;;4991971;28;20141;-87
2023/03/03 00:21:44;;;;;;;1999.90;999.90;;;6.50;93.80;;;;;;4979586;28;20137;-88
2023/03/03 00:24:21;;;;;;;1999.90;999.90;;;4.40;99.90;;;;;;4974805;28;20403;-88
2023/03/03 00:26:56;;;;;;;1999.90;999.90;;;5.10;99.90;;;;;;4974049;28;20492;-88
2023/03/03 00:29:36;;;;;;;1999.90;999.90;;;4.40;98.70;;;;;;4987222;28;20054;-88
2023/03/03 00:32:11;;;;;;;1999.90;999.90;;;3.90;99.90;;;;;;4994381;28;20050;-87
2023/03/03 00:34:37;;;;;;;1999.90;999.90;;;;;;;;;;4992466;28;20081;-88
2023/03/03 00:37:14;;;;;;;1999.90;999.90;;;4.40;84.80;;;;;;4993031;28;20395;-87
2023/03/03 00:39:40;;;;;;;1999.90;999.90;;;4.30;99.90;;;;;;4993369;28;20104;-88
2023/03/03 00:42:16;;;;;;;1999.90;999.90;;;4.50;99.90;;;;;;4993381;28;20054;-88
2023/03/03 00:44:46;;;;;;;1999.90;999.90;;;3.30;99.90;;;;;;4991304;28;20034;-87
2023/03/03 00:47:27;;;;;;;1999.90;999.90;;;4.50;92.10;;;;;;4996287;28;20038;-88
2023/03/03 00:49:59;;;;;;;1999.90;999.90;;;4.50;86.40;;;;;;4995699;28;20056;-88
2023/03/03 00:52:27;;;;;;;1999.90;999.90;;;4.50;92.50;;;;;;4996855;28;20101;-88
2023/03/03 00:54:53;;;;;;;1999.90;999.90;;;4.20;99.90;;;;;;4996818;28;20554;-88
2023/03/03 00:57:19;;;;;;;1999.90;999.90;;;5.60;99.90;;;;;;4996305;28;20138;-88
2023/03/03 00:59:45;;;;;;;1999.90;537.35;;;4.80;99.90;;;;;;4995443;28;20061;-88
2023/03/03 01:02:10;;;;;;;1999.90;999.90;;;6.20;99.90;;;;;;4995944;28;20045;-88
2023/03/03 01:04:36;;;;;;;1999.90;934.63;;;;;;;;;;4978931;28;20174;-87
2023/03/03 01:07:02;;;;;;;1999.90;999.90;;;4.90;91.00;;;;;;4996723;28;20042;-87
2023/03/03 01:09:28;;;;;;;1999.90;999.90;;;4.70;99.90;;;;;;4995388;28;20185;-87
2023/03/03 01:11:54;;;;;;;1999.90;999.90;;;3.20;99.90;;;;;;4996548;28;20050;-87
2023/03/03 01:14:20;;;;;;;1999.90;999.90;;;5.40;94.70;;;;;;4996917;28;20399;-88
2023/03/03 01:16:46;;;;;;;1999.90;999.90;;;;;;;;;;4995684;28;20054;-89
2023/03/03 01:19:11;;;;;;;1999.90;999.90;;;4.60;99.90;;;;;;4977406;28;20050;-88
2023/03/03 01:21:38;;;;;;;1999.90;999.90;;;7.20;99.90;;;;;;4979278;28;20066;-88
2023/03/03 01:24:04;;;;;;;1999.90;999.90;;;7.20;99.90;;;;;;4976291;28;20050;-88
2023/03/03 01:26:30;;;;;;;1999.90;999.90;;;4.60;99.90;;;;;;4976992;28;20042;-88
2023/03/03 01:28:56;;;;;;;1999.90;999.90;;;7.00;99.90;;;;;;4975346;28;20061;-88
2023/03/03 01:31:21;;;;;;;1999.90;999.90;;;4.90;99.90;;;;;;4976897;28;20046;-88
2023/03/03 01:33:47;;;;;;;1999.90;999.90;;;6.20;99.90;;;;;;4976200;28;20065;-88
2023/03/03 01:36:13;;;;;;;1999.90;999.90;;;6.30;99.90;;;;;;4992297;28;20081;-88
2023/03/03 01:38:38;;;;;;;1999.90;999.90;;;6.30;99.90;;;;;;4996114;28;20050;-88
2023/03/03 01:41:05;;;;;;;1999.90;999.90;;;5.40;99.90;;;;;;4995937;28;20101;-89
2023/03/03 01:43:32;;;;;;;1999.90;999.90;;;6.70;99.90;;;;;;4994855;28;20046;-89
2023/03/03 01:45:58;;;;;;;1999.90;999.90;;;4.30;99.90;;;;;;4995438;28;20035;-89
2023/03/03 01:48:44;;;;;;;1999.90;999.90;;;4.80;99.90;;;;;;4994904;28;20061;-88
2023/03/03 01:51:29;;;;;;;1999.90;999.90;;;6.30;99.90;;;;;;4976655;28;20117;-88
2023/03/03 01:53:59;;;;;;;1999.90;999.90;;;4.60;99.90;;;;;;4988704;28;20042;-88
2023/03/03 01:56:26;;;;;;;1999.90;999.90;;;5.10;99.90;;;;;;4995525;28;20724;-88
2023/03/03 01:58:59;;;;;;;1999.90;999.90;;;5.60;99.90;;;;;;4995922;28;20134;-88
2023/03/03 02:01:27;;;;;;;1999.90;999.90;;;5.40;99.90;;;;;;4996526;28;20092;-88
2023/03/03 02:03:53;;;;;;;1999.90;999.90;;;6.30;99.90;;;;;;4994824;28;20050;-88
2023/03/03 02:06:31;;;;;;;1999.90;999.90;;;5.70;99.90;;;;;;4995584;28;20487;-88
2023/03/03 02:09:13;;;;;;;1999.90;999.90;;;4.70;99.90;;;;;;4995164;28;20050;-88
2023/03/03 02:11:42;;;;;;;1999.90;999.90;;;4.60;99.90;;;;;;4994555;28;20137;-88
2023/03/03 02:14:09;;;;;;;1999.90;999.90;;;4.60;99.90;;;;;;4995227;28;20085;-88
2023/03/03 02:16:35;;;;;;;1999.90;999.90;;;6.60;99.90;;;;;;4979705;28;20466;-88
2023/03/03 02:19:00;;;;;;;1999.90;999.90;;;7.80;99.90;;;;;;4995387;28;20093;-88
2023/03/03 02:21:27;;;;;;;1999.90;999.90;;;6.60;99.90;;;;;;4980092;28;20050;-88
2023/03/03 02:24:15;;;;;;;1999.90;999.90;;;3.40;99.90;;;;;;4975653;28;20047;-88
2023/03/03 02:26:41;;;;;;;1999.90;999.90;;;6.80;99.90;;;;;;4977100;28;20410;-88
2023/03/03 02:29:08;;;;;;;1999.90;999.90;;;7.00;99.90;;;;;;4994220;28;20494;-88
2023/03/03 02:31:34;;;;;;;1999.90;999.90;;;5.20;99.90;;;;;;4994370;28;20104;-88
2023/03/03 02:34:00;;;;;;;1999.90;999.90;;;5.20;99.90;;;;;;4993922;28;20089;-88
2023/03/03 02:36:29;;;;;;;1999.90;999.90;;;6.80;99.90;;;;;;4996460;28;20062;-88
2023/03/03 02:39:18;;;;;;;1999.90;999.90;;;6.10;99.90;;;;;;4995733;28;20137;-88
2023/03/03 02:41:52;;;;;;;1999.90;999.90;;;4.40;99.90;;;;;;4995318;28;20566;-88
2023/03/03 02:44:21;;;;;;;1999.90;999.90;;;6.60;99.90;;;;;;4992698;28;20059;-89
2023/03/03 02:46:48;;;;;;;1999.90;999.90;;;4.30;99.90;;;;;;4995219;28;20554;-87
2023/03/03 02:49:17;;;;;;;1999.90;999.90;;;4.10;99.90;;;;;;4992812;28;20077;-88
2023/03/03 02:51:43;;;;;;;1999.90;999.90;;;4.40;99.90;;;;;;4995043;28;20125;-88
2023/03/03 02:54:11;;;;;;;1999.90;999.90;;;5.70;99.90;;;;;;4994586;28;20054;-89
2023/03/03 02:56:36;;;;;;;1999.90;999.90;;;6.60;99.90;;;;;;4993570;28;20502;-88
2023/03/03 02:59:03;;;;;;;1999.90;999.90;;;4.50;99.90;;;;;;4993364;28;20058;-88
2023/03/03 03:01:30;;;;;;;1999.90;999.90;;;4.50;99.90;;;;;;4993680;28;20046;-88
2023/03/03 03:03:57;;;;;;;1999.90;999.90;;;4.30;99.90;;;;;;4976617;28;20405;-88
2023/03/03 03:06:23;;;;;;;1999.90;999.90;;;6.70;99.90;;;;;;4994523;28;20046;-88
2023/03/03 03:08:50;;;;;;;1999.90;999.90;;;;;;;;;;4992472;28;20054;-88
2023/03/03 03:11:15;;;;;;;1999.90;999.90;;;4.60;99.90;;;;;;4993651;28;20056;-88
2023/03/03 03:13:41;;;;;;;1999.90;999.90;;;6.20;99.90;;;;;;4994794;28;20057;-88
2023/03/03 03:16:07;;;;;;;1999.90;999.90;;;4.30;99.90;;;;;;4992604;28;20046;-88
2023/03/03 03:18:32;;;;;;;1999.90;999.90;;;3.50;99.90;;;;;;4992573;28;20068;-89
2023/03/03 03:21:06;;;;;;;1999.90;999.90;;;3.00;99.90;;;;;;4982159;28;20570;-88
2023/03/03 03:23:33;;;;;;;1999.90;999.90;;;4.20;99.90;;;;;;4975083;28;20105;-88
2023/03/03 03:25:59;;;;;;;1999.90;999.90;;;6.40;99.90;;;;;;4974219;28;20047;-88
2023/03/03 03:28:24;;;;;;;1999.90;999.90;;;6.10;99.90;;;;;;4973740;28;20053;-88
2023/03/03 03:30:50;;;;;;;1999.90;999.90;;;4.30;99.90;;;;;;4974871;28;20051;-88
2023/03/03 03:33:16;;;;;;;1999.90;999.90;;;4.30;99.90;;;;;;4943077;28;20529;-88
2023/03/03 03:35:44;;;;;;;1999.90;999.90;;;3.20;99.90;;;;;;4993745;28;20062;-88
2023/03/03 03:38:10;;;;;;;1999.90;999.90;;;3.90;99.90;;;;;;4992304;28;20050;-88
2023/03/03 03:40:36;;;;;;;1999.90;999.90;;;4.20;99.90;;;;;;4993865;28;20050;-88
2023/03/03 03:43:02;;;;;;;1999.90;999.90;;;3.90;99.90;;;;;;4993839;28;20117;-88
2023/03/03 03:45:28;;;;;;;1999.90;999.90;;;5.00;99.90;;;;;;4994104;28;20542;-88
2023/03/03 03:47:55;;;;;;;1999.90;999.90;;;;;;;;;;4992674;28;20046;-87
2023/03/03 03:50:21;;;;;;;1999.90;999.90;;;3.20;99.90;;;;;;4991250;28;20090;-88
2023/03/03 03:52:46;;;;;;;1999.90;999.90;;;4.30;99.90;;;;;;4992589;28;20082;-88
2023/03/03 03:55:13;;;;;;;1999.90;999.90;;;4.10;99.90;;;;;;4993604;28;20046;-88
2023/03/03 03:57:40;;;;;;;1999.90;999.90;;;6.20;99.90;;;;;;4994089;28;20065;-88
2023/03/03 04:00:07;;;;;;;1999.90;999.90;;;5.10;99.90;;;;;;4993616;28;20447;-88
2023/03/03 04:02:33;;;;;;;1999.90;999.90;;;4.30;99.90;;;;;;4993296;28;20102;-88
2023/03/03 04:04:59;;;;;;;1999.90;999.90;;;4.80;99.90;;;;;;4992910;28;20058;-88
2023/03/03 04:07:25;;;;;;;1999.90;999.90;;;3.90;99.90;;;;;;4994200;28;20463;-88
2023/03/03 04:09:53;;;;;;;1999.90;999.90;;;6.90;99.90;;;;;;4991446;28;20113;-88
2023/03/03 04:12:19;;;;;;;1999.90;999.90;;;4.60;99.90;;;;;;4993378;28;20048;-88
2023/03/03 04:14:45;;;;;;;1999.90;999.90;;;;;;;;;;4993010;28;20284;-88
2023/03/03 04:17:16;;;;;;;1999.90;999.90;;;4.20;99.90;;;;;;4993860;28;20073;-88
2023/03/03 04:19:42;;;;;;;1999.90;999.90;;;;;;;;;;4990336;28;20046;-88
2023/03/03 04:22:08;;;;;;;1999.90;999.90;;;3.50;99.90;;;;;;4973042;28;20055;-88
2023/03/03 04:24:34;;;;;;;1999.90;999.90;;;;;;;;;;4978417;28;20060;-88
2023/03/03 04:27:00;;;;;;;1999.90;999.90;;;5.00;99.90;;;;;;4993449;28;20046;-88
2023/03/03 04:29:26;;;;;;;1999.90;999.90;;;4.00;99.90;;;;;;4992727;28;20109;-88
2023/03/03 04:31:52;;;;;;;1999.90;999.90;;;4.50;99.90;;;;;;4993572;28;20050;-88
2023/03/03 04:34:17;;;;;;;1999.90;999.90;;;7.10;99.90;;;;;;4991130;28;20103;-87
2023/03/03 04:36:43;;;;;;;1999.90;999.90;;;;;;;;;;4994166;28;20049;-87
2023/03/03 04:39:09;;;;;;;1999.90;999.90;;;4.60;99.90;;;;;;4992749;28;20065;-88
2023/03/03 04:41:35;;;;;;;1999.90;999.90;;;5.80;99.90;;;;;;4987058;28;20047;-88
2023/03/03 04:44:01;;;;;;;1999.90;999.90;;;4.80;99.90;;;;;;4974208;28;20047;-87
2023/03/03 04:46:27;;;;;;;1999.90;999.90;;;4.70;99.90;;;;;;4974171;28;20135;-87
2023/03/03 04:48:54;;;;;;;1999.90;999.90;;;;;;;;;;4972636;28;20046;-88
2023/03/03 04:51:20;;;;;;;1999.90;999.90;;;4.00;99.90;;;;;;4972998;28;20047;-88
2023/03/03 04:53:46;;;;;;;1999.90;999.90;;;3.50;99.90;;;;;;4974444;28;20377;-87
2023/03/03 04:56:12;;;;;;;1999.90;999.90;;;4.90;99.90;;;;;;4977189;28;20054;-88
2023/03/03 04:58:37;;;;;;;1999.90;999.90;;;3.30;99.90;;;;;;4990483;28;20128;-87
2023/03/03 05:01:03;;;;;;;1999.90;999.90;;;3.30;99.90;;;;;;4993031;28;20046;-88
2023/03/03 05:03:29;;;;;;;1999.90;999.90;;;3.70;99.90;;;;;;4991258;28;20061;-88
2023/03/03 05:05:54;;;;;;;1999.90;999.90;;;6.40;99.90;;;;;;4993721;28;20105;-88
2023/03/03 05:08:20;;;;;;;1999.90;999.90;;;4.30;99.90;;;;;;4992891;28;20061;-88
2023/03/03 05:10:50;;;;;;;1999.90;999.90;;;6.00;99.90;;;;;;4992091;28;20180;-88
2023/03/03 05:13:16;;;;;;;1999.90;999.90;;;3.50;99.90;;;;;;4993020;28;20050;-88
2023/03/03 05:15:42;;;;;;;1999.90;999.90;;;4.50;99.90;;;;;;4992386;28;20050;-88
2023/03/03 05:18:08;;;;;;;1999.90;999.90;;;;;;;;;;4992447;28;20097;-88
2023/03/03 05:20:34;;;;;;;1999.90;999.90;;;3.80;99.90;;;;;;4983015;28;20136;-88
2023/03/03 05:23:00;;;;;;;1999.90;999.90;;;5.50;99.90;;;;;;4973629;28;20444;-88
2023/03/03 05:25:26;;;;;;;1999.90;999.90;;;3.30;99.90;;;;;;4956401;28;20051;-88
2023/03/03 05:27:51;;;;;;;1999.90;999.90;;;3.50;99.90;;;;;;4973485;28;20126;-88
2023/03/03 05:30:17;;;;;;;1999.90;999.90;;;5.30;99.90;;;;;;4959823;28;20046;-89
2023/03/03 05:32:43;;;;;;;1999.90;999.90;;;3.20;99.90;;;;;;4995994;28;20456;-88
2023/03/03 05:35:09;;;;;;;1999.90;999.90;;;2.90;99.90;;;;;;4978616;28;20506;-88
2023/03/03 05:37:35;;;;;;;1999.90;999.90;;;5.40;99.90;;;;;;4996713;28;20047;-88
2023/03/03 05:40:00;;;;;;;1999.90;999.90;;;4.10;99.90;;;;;;4994909;28;20080;-89
2023/03/03 05:42:26;;;;;;;1999.90;999.90;;;2.90;99.90;;;;;;4995818;28;20109;-88
2023/03/03 05:44:52;;;;;;;1999.90;999.90;;;4.80;99.90;;;;;;4997068;28;20073;-89
2023/03/03 05:47:17;;;;;;;1999.90;999.90;;;4.00;99.90;;;;;;4994666;28;20049;-88
2023/03/03 05:49:43;;;;;;;1999.90;999.90;;;2.90;99.90;;;;;;4995094;28;20053;-89
2023/03/03 05:52:09;;;;;;;1999.90;999.90;;;2.80;99.90;;;;;;4996888;28;20478;-89
2023/03/03 05:54:35;;;;;;;1999.90;999.90;;;5.50;99.90;;;;;;4996839;28;20378;-88
2023/03/03 05:57:00;;;;;;;1999.90;999.90;;;3.20;99.90;;;;;;4995725;28;20046;-89
2023/03/03 05:59:26;;;;;;;1999.90;999.90;;;2.30;99.90;;;;;;4996453;28;20133;-88
2023/03/03 06:01:52;;;;;;;1999.90;999.90;;;2.40;99.90;;;;;;4996102;28;20058;-88
2023/03/03 06:04:17;;;;;;;1999.90;999.90;;;2.60;99.90;;;;;;4993733;28;20501;-89
2023/03/03 06:06:43;;;;;;;1999.90;999.90;;;3.40;99.90;;;;;;4996170;28;20100;-88
2023/03/03 06:09:09;;;;;;;1999.90;999.90;;;5.70;99.90;;;;;;4994957;28;20054;-89
2023/03/03 06:11:36;;;;;;;1999.90;999.90;;;2.90;99.90;;;;;;4994439;28;20053;-88
2023/03/03 06:14:02;;;;;;;1999.90;999.90;;;3.50;99.90;;;;;;4978605;28;20051;-89
2023/03/03 06:16:27;;;;;;;1999.90;999.90;;;3.00;1.00;;;;;;4994234;28;20050;-88
2023/03/03 06:18:53;;;;;;;1999.90;999.90;;;;;;;;;;4994337;28;20486;-88
2023/03/03 06:21:19;;;;;;;1999.90;999.90;;;;;;;;;;4989878;28;20589;-88
2023/03/03 06:23:45;;;;;;;1999.90;999.90;;;3.00;99.90;;;;;;4995383;28;20042;-88
2023/03/03 06:26:11;;;;;;;1800.25;793.70;;;5.10;99.90;;;;;;4994130;28;20376;-88
2023/03/03 06:28:36;;;;;;;1999.90;999.90;;;5.70;99.90;;;;;;4978106;28;20082;-88
2023/03/03 06:31:02;;;;;;;1999.90;999.90;;;2.40;99.90;;;;;;4994969;28;20050;-88
2023/03/03 06:33:28;;;;;;;1999.90;999.90;;;2.50;99.90;;;;;;4993024;28;20674;-88
2023/03/03 06:35:54;;;;;;;1999.90;742.65;;;2.70;7.80;;;;;;4995156;28;20054;-88
2023/03/03 06:38:20;;;;;;;1999.90;999.90;;;3.60;1.00;;;;;;4994144;28;20495;-88
2023/03/03 06:40:46;;;;;;;1999.90;999.90;;;6.00;1.00;;;;;;4995202;28;20113;-88
2023/03/03 06:43:12;;;;;;;1999.90;999.90;;;4.70;1.00;;;;;;4994725;28;20046;-88
2023/03/03 06:45:38;;;;;;;1999.90;999.90;;;4.30;1.00;;;;;;4995506;28;20050;-88
2023/03/03 06:48:04;;;;;;;1999.90;867.88;;;;;;;;;;4996031;28;20588;-89
2023/03/03 06:50:30;;;;;;;1999.90;999.90;;;3.60;85.40;;;;;;4994553;28;20046;-88
2023/03/03 06:53:10;;;;;;;1999.90;999.90;;;3.20;48.10;;;;;;4977512;28;20102;-88
2023/03/03 06:55:36;;;;;;;1918.47;843.40;;;5.10;99.90;;;;;;4975435;28;20046;-88
2023/03/03 06:58:10;;;;;;;1999.90;999.90;;;5.70;99.90;;;;;;4995785;28;20129;-89
2023/03/03 07:00:36;;;;;;;1999.90;999.90;;;3.40;99.90;;;;;;4994431;28;20514;-88
2023/03/03 07:03:11;;;;;;;1904.00;810.75;;;2.50;99.90;;;;;;4976262;28;20359;-88
2023/03/03 07:05:37;;;;;;;1999.90;674.15;;;2.90;99.90;;;;;;4974979;28;20259;-88
2023/03/03 07:08:09;;;;;;;1999.90;999.90;;;3.30;99.90;;;;;;4982568;28;20060;-88
2023/03/03 07:10:35;;;;;;;1999.90;999.90;;;3.40;99.90;;;;;;4993709;28;20058;-88
2023/03/03 07:13:16;;;;;;;1999.90;999.90;;;2.70;99.90;;;;;;4994345;28;20100;-88
2023/03/03 07:15:42;;;;;;;1999.90;999.90;;;5.10;99.90;;;;;;4993173;28;20113;-88
2023/03/03 07:18:40;;;;;;;1999.90;999.90;;;3.00;99.90;;;;;;4992315;28;20073;-88
2023/03/03 07:21:12;;;;;;;1999.90;999.90;;;3.20;1.00;;;;;;4981483;28;20057;-88
2023/03/03 07:23:41;;;;;;;1999.90;999.90;;;2.80;1.00;;;;;;4980418;28;20049;-89
2023/03/03 07:26:17;;;;;;;1999.90;999.90;;;3.80;99.90;;;;;;4993292;28;20043;-89
2023/03/03 07:28:45;;;;;;;1999.90;999.90;;;3.40;99.90;;;;;;4994481;28;20133;-88
2023/03/03 07:31:26;;;;;;;;;;;3.70;99.90;;;;;;4994367;28;20101;-88
2023/03/03 07:33:54;;;;;;;1999.90;999.90;;;3.50;1.00;;;;;;4992169;28;19922;-88
2023/03/03 07:36:27;;;;;;;1999.90;999.90;;;5.70;1.00;;;;;;4994381;28;20061;-90
2023/03/03 07:38:59;;;;;;;1999.90;717.17;;;3.40;99.90;;;;;;4993326;28;20046;-89
2023/03/03 07:41:25;;;;;;;1999.90;999.90;;;3.10;99.90;;;;;;4992358;28;20047;-88
2023/03/03 07:43:53;;;;;;;1999.90;999.90;;;3.30;1.00;;;;;;4994232;28;20565;-88
2023/03/03 07:46:46;;;;;;;1999.90;999.90;;;4.40;16.20;;;;;;4993261;28;20058;-88
2023/03/03 07:49:20;;;;;;;1999.90;999.90;;;3.20;16.70;;;;;;4992519;28;20042;-89
2023/03/03 07:51:46;;;;;;;1999.90;999.90;;;4.70;99.90;;;;;;4992959;28;20093;-89
2023/03/03 07:54:34;;;;;;;1999.90;837.60;;;4.00;99.90;;;;;;4993403;28;20094;-89
2023/03/03 07:57:08;;;;;;;1999.90;999.90;;;3.70;99.90;;;;;;4991640;28;20054;-89
2023/03/03 07:59:36;;;;;;;1999.90;999.90;;;3.00;1.00;;;;;;4993721;28;20053;-88
2023/03/03 08:02:05;;;;;;;1999.90;999.90;;;3.90;1.00;;;;;;4976945;28;20054;-89
2023/03/03 08:04:36;;;;;;;1999.90;999.90;;;4.20;1.00;;;;;;4991635;28;20081;-89
2023/03/03 08:07:10;;;;;;;1999.90;999.90;;;4.10;1.00;;;;;;4994139;28;20518;-88
2023/03/03 08:09:57;;;;;;;1999.90;999.90;;;5.20;97.00;;;;;;4992317;28;20050;-88
2023/03/03 08:12:41;;;;;;;1999.90;999.90;;;4.30;17.20;;;;;;4992597;28;20053;-88
2023/03/03 08:15:17;;;;;;;1999.90;999.90;;;4.20;17.40;;;;;;4992561;28;20060;-89
2023/03/03 08:17:44;;;;;;;1999.90;999.90;;;4.20;70.30;;;;;;4989417;28;20129;-88
2023/03/03 08:20:43;;;;;;;1999.90;999.90;;;4.50;53.10;;;;;;4971787;28;20054;-88
2023/03/03 08:23:09;;;;;;;1999.90;999.90;;;4.80;1.00;;;;;;4987763;28;20054;-88
2023/03/03 08:25:35;;;;;;;1999.90;999.90;;;3.90;99.90;;;;;;4993192;28;20046;-89
2023/03/03 08:28:01;;;;;;;1999.90;999.90;;;6.10;99.90;;;;;;4991575;28;20052;-89
2023/03/03 08:30:26;;;;;;;1999.90;999.90;;;4.90;99.90;;;;;;4992553;28;20046;-89
2023/03/03 08:32:52;;;;;;;1999.90;999.90;;;6.00;99.90;;;;;;4991417;28;20046;-88
2023/03/03 08:35:18;;;;;;;1999.90;999.90;;;5.50;99.90;;;;;;4993854;28;20543;-89
2023/03/03 08:37:43;;;;;;;1999.90;999.90;;;7.50;99.90;;;;;;4993732;28;20387;-89
2023/03/03 08:40:09;;;;;;;1999.90;999.90;;;6.60;99.90;;;;;;4988765;28;20042;-88
2023/03/03 08:42:35;;;;;;;1999.90;999.90;;;4.90;99.90;;;;;;4993070;28;20046;-89
2023/03/03 08:45:01;;;;;;;1999.90;999.90;;;4.60;99.90;;;;;;4993380;28;20049;-89
2023/03/03 08:47:26;;;;;;;1999.90;999.90;;;6.10;99.90;;;;;;4992210;28;20057;-88
2023/03/03 08:49:53;;;;;;;1999.90;999.90;;;6.90;99.90;;;;;;4974493;28;20074;-88
2023/03/03 08:52:19;;;;;;;1999.90;999.90;;;;;;;;;;4992423;28;20050;-89
2023/03/03 08:54:45;;;;;;;1999.90;999.90;;;4.60;1.00;;;;;;4991827;28;20046;-88
2023/03/03 08:57:11;;;;;;;1999.90;999.90;;;3.80;99.90;;;;;;4993192;28;20061;-88
2023/03/03 08:59:37;;;;;;;1999.90;999.90;;;4.90;1.00;;;;;;4993613;28;20042;-88
2023/03/03 09:02:05;;;;;;;1999.90;999.90;;;4.90;1.00;;;;;;4993863;28;20058;-88
2023/03/03 09:04:30;;;;;;;1999.90;999.90;;;6.60;99.90;;;;;;4991907;28;20060;-89
2023/03/03 09:06:56;;;;;;;1999.90;999.90;;;4.90;99.90;;;;;;4994696;28;20038;-88
2023/03/03 09:09:22;;;;;;;1999.90;999.90;;;5.00;99.90;;;;;;4997143;28;20053;-88
2023/03/03 09:11:48;;;;;;;1999.90;999.90;;;4.00;99.90;;;;;;4996398;28;20081;-88
2023/03/03 09:14:17;;;;;;;1999.90;999.90;;;5.10;99.90;;;;;;4980993;28;20050;-88
2023/03/03 09:16:54;;;;;;;1999.90;999.90;;;5.00;99.90;;;;;;4997942;28;20053;-88
2023/03/03 09:19:22;;;;;;;1999.90;999.90;;;7.20;99.90;;;;;;4996159;28;20130;-88
2023/03/03 09:21:53;;;;;;;1999.90;999.90;;;5.50;99.90;;;;;;4977008;28;20499;-88
2023/03/03 09:24:28;;;;;;;1999.90;999.90;;;5.20;99.90;;;;;;4984977;28;20046;-88
2023/03/03 09:26:57;;;;;;;1999.90;999.90;;;5.50;99.90;;;;;;4994783;28;20050;-88
2023/03/03 09:29:28;;;;;;;1999.90;999.90;;;7.20;99.90;;;;;;4997521;28;20050;-88
2023/03/03 09:32:00;;;;;;;1999.90;999.90;;;6.70;99.90;;;;;;4996120;28;20384;-88
2023/03/03 09:34:35;;;;;;;1999.90;999.90;;;5.50;99.90;;;;;;4995262;28;20153;-88
2023/03/03 09:37:20;;;;;;;1999.90;999.90;;;5.20;99.90;;;;;;4997182;28;20050;-88
2023/03/03 09:39:57;;;;;;;1869.05;792.20;;;5.10;99.90;;;;;;4996360;28;20398;-88
2023/03/03 09:42:41;;;;;;;1999.90;999.90;;;7.90;99.90;;;;;;4995722;28;20042;-88
2023/03/03 09:45:47;;;;;;;1999.90;999.90;;;5.70;99.90;;;;;;4997089;28;20090;-88
2023/03/03 09:48:31;;;;;;;1999.90;999.90;;;5.80;99.90;;;;;;4995742;28;20134;-89
2023/03/03 09:51:21;;;;;;;1999.90;999.90;;;5.70;99.90;;;;;;4996887;28;20046;-88
2023/03/03 09:53:52;;;;;;;1999.90;999.90;;;8.30;99.90;;;;;;4996171;28;20076;-88
2023/03/03 09:56:31;;;;;;;1999.90;999.90;;;6.70;99.90;;;;;;4995068;28;20050;-88
2023/03/03 09:59:03;;;;;;;1999.90;999.90;;;6.20;99.90;;;;;;4994519;28;20404;-88
2023/03/03 10:01:50;;;;;;;1999.90;999.90;;;6.30;99.90;;;;;;4997247;28;20447;-88
2023/03/03 10:04:41;;;;;;;1999.90;999.90;;;6.30;99.90;;;;;;4994418;28;20137;-88
2023/03/03 10:07:26;;;;;;;1999.90;999.90;;;6.50;99.90;;;;;;4995731;28;20046;-89
2023/03/03 10:10:07;;;;;;;1999.90;999.90;;;8.10;99.90;;;;;;4995750;28;20072;-88
2023/03/03 10:12:58;;;;;;;1999.90;999.90;;;6.90;99.90;;;;;;4978769;28;20054;-88
2023/03/03 10:15:49;;;;;;;1999.90;999.90;;;6.00;81.50;;;;;;4993795;28;20056;-88
2023/03/03 10:18:33;;;;;;;1999.90;301.58;;;7.20;55.60;;;;;;4994743;28;20058;-88
2023/03/03 10:21:18;;;;;;;1999.90;999.90;;;7.20;24.60;;;;;;4983967;28;20189;-88
2023/03/03 10:23:55;;;;;;;1999.90;999.90;;;7.20;56.30;;;;;;4975020;28;20058;-88
2023/03/03 10:26:31;;;;;;;1999.90;999.90;;;7.70;15.50;;;;;;4982932;28;20129;-88
2023/03/03 10:29:26;;;;;;;1999.90;999.90;;;7.00;1.00;;;;;;4995242;28;20089;-88
2023/03/03 10:32:18;;;;;;;1999.90;999.90;;;8.70;1.00;;;;;;4994039;28;20104;-88
2023/03/03 10:35:04;;;;;;;1999.90;999.90;;;8.80;1.00;;;;;;4995218;28;20100;-88
2023/03/03 10:37:55;;;;;;;1999.90;999.90;;;8.30;1.00;;;;;;4994445;28;20191;-88
2023/03/03 10:40:46;;;;;;;1999.90;999.90;;;8.50;1.00;;;;;;4996103;28;20046;-88
2023/03/03 10:43:41;;;;;;;1999.90;999.90;;;8.70;1.00;;;;;;4994389;28;20086;-88
2023/03/03 10:46:25;;;;;;;1999.90;999.90;;;9.00;1.00;;;;;;4994135;28;20538;-88
2023/03/03 10:49:13;;;;;;;1999.90;902.03;;;9.40;1.00;;;;;;4994767;28;20050;-88
2023/03/03 10:52:01;;;;;;;1999.90;842.38;;;9.40;1.00;;;;;;4992975;28;20638;-88
2023/03/03 10:55:00;;;;;;;1999.90;724.22;;;9.60;1.00;;;;;;4993832;28;20046;-88
2023/03/03 10:58:00;;;;;;;1999.90;999.90;;;9.70;1.00;;;;;;4995681;28;20100;-87
2023/03/03 11:00:34;;;;;;;1999.90;832.85;;;9.60;99.90;;;;;;4996214;28;20483;-88
2023/03/03 11:03:30;;;;;;;1999.90;849.95;;;11.20;1.00;;;;;;4993893;28;20055;-88
2023/03/03 11:06:01;;;;;;;1999.90;469.35;;;10.20;99.90;;;;;;4994660;28;20082;-88
2023/03/03 11:08:46;;;;;;;1999.90;922.00;;;10.70;1.00;;;;;;4992558;28;20502;-88
2023/03/03 11:11:11;;;;;;;1999.90;880.45;;;10.90;99.90;;;;;;4993713;28;20042;-88
2023/03/03 11:14:19;;;;;;;1999.90;403.27;;;11.10;99.90;;;;;;4995357;28;20058;-88
2023/03/03 11:16:57;;;;;;;1999.90;588.63;;;10.90;99.90;;;;;;4993685;28;20097;-88
2023/03/03 11:20:00;;;;;;;1999.90;737.58;;;10.90;99.90;;;;;;4993895;28;20510;-88
2023/03/03 11:22:52;;;;;;;1999.90;714.88;;;11.00;99.90;;;;;;4975020;28;20059;-88
2023/03/03 11:25:43;;;;;;;1999.90;346.33;;;11.20;99.90;;;;;;4988659;28;20046;-88
2023/03/03 11:28:36;;;;;;;1999.90;609.22;;;11.20;99.90;;;;;;4993863;28;20221;-88
2023/03/03 11:31:15;;;;;;;1999.90;704.20;;;11.30;99.90;;;;;;4993644;28;20121;-88
2023/03/03 11:34:04;;;;;;;1999.90;514.58;;;11.40;99.90;;;;;;4993328;28;20081;-88
2023/03/03 11:36:36;;;;;;;1999.90;816.00;;;11.50;99.90;;;;;;4993325;28;20046;-88
2023/03/03 11:39:01;;;;;;;1999.90;982.55;;;11.80;99.90;;;;;;4992701;28;20050;-88
2023/03/03 11:41:48;;;;;;;1999.90;974.05;;;12.10;99.90;;;;;;4991480;28;20046;-88
2023/03/03 11:44:26;;;;;;;1999.90;999.90;;;12.50;99.90;;;;;;4993479;28;20050;-88
2023/03/03 11:47:05;;;;;;;1999.90;999.90;;;12.60;99.90;;;;;;4992527;28;20121;-87
2023/03/03 11:49:46;;;;;;;1999.90;966.38;;;12.60;99.90;;;;;;4993356;28;20053;-88
2023/03/03 11:52:26;;;;;;;1999.90;999.90;;;12.30;99.90;;;;;;4993580;28;20087;-88
2023/03/03 11:55:16;;;;;;;1999.90;999.90;;;12.50;99.90;;;;;;4992704;28;20411;-88
2023/03/03 11:58:06;;;;;;;1999.90;999.90;;;12.30;99.90;;;;;;4991702;28;20375;-87
2023/03/03 12:01:11;;;;;;;1999.90;999.90;;;12.10;99.90;;;;;;4975121;28;20130;-88
2023/03/03 12:04:03;;;;;;;1999.90;999.90;;;11.80;99.90;;;;;;4973710;28;20050;-88
2023/03/03 12:06:50;;;;;;;1999.90;857.13;;;11.50;99.90;;;;;;4974473;28;20051;-88
2023/03/03 12:09:19;;;;;;;1999.90;999.90;;;11.40;99.90;;;;;;4973394;28;20054;-88
2023/03/03 12:11:56;;;;;;;1999.90;999.90;;;11.30;99.90;;;;;;4974364;28;20046;-88
2023/03/03 12:14:34;;;;;;;1999.90;999.90;;;11.20;99.90;;;;;;4973262;28;20097;-88
2023/03/03 12:17:12;;;;;;;1999.90;888.92;;;11.10;99.90;;;;;;4980840;28;20035;-88
2023/03/03 12:19:38;;;;;;;1999.90;999.90;;;11.20;99.90;;;;;;4991544;28;20403;-87
2023/03/03 12:22:46;;;;;;;1999.90;999.90;;;11.30;99.90;;;;;;4973648;28;20054;-87
2023/03/03 12:25:37;;;;;;;1999.90;889.25;;;11.40;99.90;;;;;;4951956;29;20043;-88
2023/03/03 12:28:10;;;;;;;1999.90;999.90;;;11.60;99.90;;;;;;4985308;28;20058;-88
2023/03/03 12:30:42;;;;;;;1999.90;999.90;;;11.70;99.90;;;;;;4993846;28;20415;-88
2023/03/03 12:33:21;;;;;;;1999.90;999.90;;;11.90;99.90;;;;;;4992439;28;20055;-88
2023/03/03 12:36:05;;;;;;;1999.90;999.90;;;12.00;99.90;;;;;;4993335;28;20054;-88
2023/03/03 12:38:48;;;;;;;1999.90;999.90;;;11.90;99.90;;;;;;4992321;28;20093;-88